createdAt,value
2018-10-19T00:00:05.435Z,17.90
2018-10-19T00:02:32.745Z,17.71
2018-10-19T00:05:00.465Z,17.76
2018-10-19T00:07:28.442Z,17.84
2018-10-19T00:09:55.639Z,18.01
2018-10-19T00:12:23.766Z,18.09
2018-10-19T00:14:51.198Z,18.05
2018-10-19T00:17:19.982Z,18.07
2018-10-19T00:19:49.526Z,17.94
2018-10-19T00:22:17.677Z,17.83
2018-10-19T00:24:45.162Z,17.85
2018-10-19T00:27:11.878Z,17.79
2018-10-19T00:29:40.979Z,17.68
2018-10-19T00:32:07.519Z,17.59
2018-10-19T00:34:34.114Z,17.71
2018-10-19T00:37:00.720Z,17.76
2018-10-19T00:39:27.304Z,17.42
2018-10-19T00:41:53.892Z,17.62
2018-10-19T00:44:20.494Z,17.74
2018-10-19T00:46:47.180Z,17.73
2018-10-19T00:49:13.791Z,17.37
2018-10-19T00:51:40.385Z,17.26
2018-10-19T00:54:06.970Z,17.29
2018-10-19T00:56:33.613Z,17.51
2018-10-19T00:59:00.293Z,17.52
2018-10-19T01:01:27.072Z,17.60
2018-10-19T01:03:53.667Z,17.66
2018-10-19T01:06:20.276Z,17.40
2018-10-19T01:08:46.887Z,17.34
2018-10-19T01:11:13.555Z,17.45
2018-10-19T01:13:40.676Z,17.12
2018-10-19T01:16:07.228Z,17.15
2018-10-19T01:18:33.876Z,17.22
2018-10-19T01:21:00.517Z,17.15
2018-10-19T01:23:27.848Z,16.91
2018-10-19T01:25:54.406Z,16.64
2018-10-19T01:28:20.986Z,16.86
2018-10-19T01:30:47.553Z,17.45
2018-10-19T01:33:14.219Z,17.48
2018-10-19T01:35:40.837Z,17.17
2018-10-19T01:38:07.313Z,16.82
2018-10-19T01:40:33.848Z,16.34
2018-10-19T01:43:00.325Z,16.31
2018-10-19T01:45:26.828Z,16.61
2018-10-19T01:47:53.338Z,16.89
2018-10-19T01:50:20.713Z,16.88
2018-10-19T01:52:47.252Z,16.83
2018-10-19T01:55:13.767Z,16.60
2018-10-19T01:57:40.320Z,16.40
2018-10-19T02:00:06.825Z,16.49
2018-10-19T02:07:36.851Z,16.52
2018-10-19T02:10:03.422Z,16.36
2018-10-19T02:12:30.281Z,16.52
2018-10-19T02:14:56.923Z,16.66
2018-10-19T02:17:23.551Z,16.69
2018-10-19T02:19:50.081Z,16.55
2018-10-19T02:22:16.763Z,16.56
2018-10-19T02:24:43.231Z,16.34
2018-10-19T02:27:09.773Z,16.63
2018-10-19T02:29:36.471Z,16.41
2018-10-19T02:32:02.962Z,16.20
2018-10-19T02:34:29.436Z,16.44
2018-10-19T02:36:55.978Z,16.06
2018-10-19T02:39:22.677Z,15.87
2018-10-19T02:41:49.231Z,15.74
2018-10-19T02:44:15.746Z,15.95
2018-10-19T02:46:42.225Z,16.18
2018-10-19T02:49:08.745Z,16.17
2018-10-19T02:51:35.346Z,15.55
2018-10-19T02:54:01.796Z,15.05
2018-10-19T04:16:38.167Z,14.55
2018-10-19T12:16:46.058Z,27.34
2018-10-19T12:25:08.531Z,26.24
2018-10-19T12:30:32.370Z,27.21
2018-10-19T12:33:04.435Z,27.10
2018-10-19T12:51:28.362Z,27.85
2018-10-19T12:53:55.204Z,26.99
2018-10-19T12:56:23.498Z,27.36
2018-10-19T12:58:51.001Z,26.99
2018-10-19T13:01:18.974Z,27.07
2018-10-19T13:03:47.342Z,27.19
2018-10-19T13:06:14.220Z,26.74
2018-10-19T13:08:44.304Z,26.89
2018-10-19T13:11:12.210Z,26.78
2018-10-19T13:13:40.927Z,26.09
2018-10-19T13:18:40.860Z,24.94
2018-10-19T13:21:09.737Z,24.66
2018-10-19T13:23:38.717Z,24.65
2018-10-19T13:28:36.782Z,23.72
2018-10-19T13:31:03.575Z,23.74
2018-10-19T13:33:30.867Z,23.53
2018-10-19T13:35:59.418Z,23.84
2018-10-19T13:38:26.410Z,24.51
2018-10-19T13:40:53.413Z,24.66
2018-10-19T13:43:20.692Z,24.51
2018-10-19T13:45:48.968Z,24.44
2018-10-19T13:48:16.683Z,24.52
2018-10-19T13:50:44.264Z,24.28
2018-10-19T13:53:12.423Z,23.89
2018-10-19T13:55:40.357Z,23.92
2018-10-19T14:00:43.658Z,24.89
2018-10-19T14:10:57.270Z,24.23
2018-10-19T14:13:25.322Z,24.30
2018-10-19T14:15:53.645Z,24.40
2018-10-19T14:20:52.839Z,24.84
2018-10-19T14:23:21.185Z,24.56
2018-10-19T14:25:48.074Z,24.93
2018-10-19T14:28:16.469Z,25.12
2018-10-19T14:30:44.066Z,24.79
2018-10-19T14:33:12.620Z,24.75
2018-10-19T14:35:40.580Z,24.48
2018-10-19T14:38:09.718Z,24.30
2018-10-19T14:40:38.088Z,24.27
2018-10-19T14:43:06.376Z,24.04
2018-10-19T14:45:33.491Z,24.15
2018-10-19T14:48:02.473Z,23.53
2018-10-19T14:50:30.660Z,23.74
2018-10-19T14:52:58.820Z,23.57
2018-10-19T14:55:27.553Z,23.61
2018-10-19T14:57:56.115Z,23.68
2018-10-19T15:00:25.573Z,23.87
2018-10-19T15:02:54.274Z,24.01
2018-10-19T15:05:24.918Z,23.67
2018-10-19T15:07:53.452Z,23.67
2018-10-19T15:10:21.832Z,23.70
2018-10-19T15:12:49.816Z,23.54
2018-10-19T15:15:20.777Z,23.37
2018-10-19T15:17:48.386Z,23.01
2018-10-19T15:20:15.504Z,22.74
2018-10-19T15:22:44.002Z,22.44
2018-10-19T15:25:11.839Z,22.14
2018-10-19T15:27:40.147Z,21.87
2018-10-19T15:30:06.857Z,21.39
2018-10-19T15:32:35.806Z,21.56
2018-10-19T15:35:04.089Z,21.30
2018-10-19T15:37:31.617Z,21.30
2018-10-19T15:42:31.793Z,21.16
2018-10-19T15:44:59.222Z,21.39
2018-10-19T15:50:40.631Z,21.20
2018-10-19T15:58:05.529Z,20.65
2018-10-19T16:38:59.144Z,19.48
2018-10-19T16:41:28.607Z,19.55
2018-10-19T16:46:31.915Z,19.42
2018-10-19T16:48:59.538Z,19.33
2018-10-19T16:54:17.046Z,19.55
2018-10-19T16:56:45.344Z,19.50
2018-10-19T16:59:13.785Z,19.27
2018-10-19T17:01:42.035Z,19.29
2018-10-19T17:04:10.494Z,19.25
2018-10-19T17:06:38.985Z,19.16
2018-10-19T17:09:07.291Z,18.84
2018-10-19T17:14:05.719Z,18.82
2018-10-19T17:16:34.090Z,18.77
2018-10-19T17:19:01.907Z,18.88
2018-10-19T17:21:29.783Z,19.04
2018-10-19T17:26:29.865Z,18.88
2018-10-19T17:28:57.823Z,18.59
2018-10-19T17:31:26.085Z,18.43
2018-10-19T17:33:53.505Z,18.34
2018-10-19T17:36:21.067Z,18.22
2018-10-19T17:38:48.281Z,18.04
2018-10-19T17:41:16.734Z,18.09
2018-10-19T17:43:45.364Z,17.81
2018-10-19T17:46:11.892Z,17.72
2018-10-19T17:48:39.028Z,18.07
2018-10-19T17:51:07.126Z,17.73
2018-10-19T17:53:35.376Z,17.68
2018-10-19T17:56:05.710Z,17.60
2018-10-19T17:58:33.729Z,17.67
2018-10-19T18:01:02.369Z,17.84
2018-10-19T18:03:29.718Z,17.65
2018-10-19T18:05:58.390Z,17.65
2018-10-19T18:08:26.808Z,17.49
2018-10-19T18:10:55.184Z,17.28
2018-10-19T18:13:22.293Z,17.11
2018-10-19T18:15:49.467Z,17.05
2018-10-19T18:18:17.428Z,17.11
2018-10-19T18:20:46.536Z,17.08
2018-10-19T18:23:14.454Z,16.92
2018-10-19T18:25:42.923Z,17.06
2018-10-19T18:28:11.241Z,16.97
2018-10-19T18:30:41.144Z,16.94
2018-10-19T18:33:11.379Z,16.95
2018-10-19T18:35:39.909Z,16.90
2018-10-19T18:38:07.486Z,16.68
2018-10-19T18:40:37.637Z,16.46
2018-10-19T18:43:06.160Z,16.61
2018-10-19T18:45:33.623Z,16.73
2018-10-19T18:48:00.821Z,17.01
2018-10-19T18:50:27.621Z,16.92
2018-10-19T18:52:57.188Z,16.76
2018-10-19T18:55:23.897Z,16.80
2018-10-19T18:57:52.345Z,16.80
2018-10-19T19:00:19.453Z,16.76
2018-10-19T19:02:48.053Z,16.68
2018-10-19T19:05:15.230Z,16.86
2018-10-19T19:07:44.777Z,16.76
2018-10-19T19:10:23.015Z,16.57
2018-10-19T19:12:50.861Z,16.43
2018-10-19T19:15:18.990Z,16.46
2018-10-19T19:17:46.544Z,16.51
2018-10-19T19:20:15.768Z,16.42
2018-10-19T19:22:43.176Z,16.32
2018-10-19T19:33:41.370Z,15.47
2018-10-19T19:36:17.062Z,15.71
2018-10-19T23:22:33.496Z,13.57
2018-10-19T23:25:04.575Z,13.17
2018-10-19T23:27:32.240Z,13.26
2018-10-19T23:29:59.216Z,13.37
2018-10-19T23:32:26.660Z,13.80
2018-10-19T23:40:37.201Z,13.59
2018-10-19T23:43:04.601Z,13.55
2018-10-19T23:45:31.897Z,13.58
2018-10-19T23:48:00.502Z,13.30
2018-10-19T23:50:27.680Z,13.13
2018-10-19T23:52:55.902Z,12.83
2018-10-19T23:55:23.453Z,12.91
2018-10-19T23:57:51.350Z,12.86
